sensor_id;sensor_type;location;lat;lon;timestamp;pressure;altitude;pressure_sealevel;temperature;humidity
40574;BME280;26283;49.020;8.644;2023-09-19T00:00:23;98819.47;;;24.04;55.62
40574;BME280;26283;49.020;8.644;2023-09-19T00:02:55;98810.41;;;24.04;55.63
40574;BME280;26283;49.020;8.644;2023-09-19T00:05:24;98817.06;;;24.03;55.75
40574;BME280;26283;49.020;8.644;2023-09-19T00:07:53;98812.69;;;24.02;55.68
40574;BME280;26283;49.020;8.644;2023-09-19T00:10:25;98819.34;;;24.01;55.67
40574;BME280;26283;49.020;8.644;2023-09-19T00:12:55;98828.72;;;24.00;55.73
40574;BME280;26283;49.020;8.644;2023-09-19T00:15:24;98827.09;;;23.99;55.63
40574;BME280;26283;49.020;8.644;2023-09-19T00:17:51;98828.72;;;24.00;55.67
40574;BME280;26283;49.020;8.644;2023-09-19T00:20:17;98827.09;;;23.99;55.69
40574;BME280;26283;49.020;8.644;2023-09-19T00:22:44;98823.84;;;23.97;55.62
40574;BME280;26283;49.020;8.644;2023-09-19T00:25:10;98831.28;;;23.96;55.63
40574;BME280;26283;49.020;8.644;2023-09-19T00:27:39;98836.78;;;23.96;55.68
40574;BME280;26283;49.020;8.644;2023-09-19T00:30:06;98837.91;;;23.95;55.74
40574;BME280;26283;49.020;8.644;2023-09-19T00:32:33;98842.59;;;23.95;55.69
40574;BME280;26283;49.020;8.644;2023-09-19T00:34:59;98846.50;;;23.93;55.64
40574;BME280;26283;49.020;8.644;2023-09-19T00:37:24;98839.34;;;23.92;55.62
40574;BME280;26283;49.020;8.644;2023-09-19T00:39:50;98844.88;;;23.92;55.62
40574;BME280;26283;49.020;8.644;2023-09-19T00:42:19;98846.00;;;23.91;55.61
40574;BME280;26283;49.020;8.644;2023-09-19T00:44:47;98838.06;;;23.90;55.75
40574;BME280;26283;49.020;8.644;2023-09-19T00:47:17;98853.75;;;23.89;55.67
40574;BME280;26283;49.020;8.644;2023-09-19T00:49:46;98842.75;;;23.89;55.66
40574;BME280;26283;49.020;8.644;2023-09-19T00:52:14;98848.25;;;23.89;55.71
40574;BME280;26283;49.020;8.644;2023-09-19T00:54:40;98850.50;;;23.87;55.74
40574;BME280;26283;49.020;8.644;2023-09-19T00:57:06;98848.56;;;23.88;55.75
40574;BME280;26283;49.020;8.644;2023-09-19T00:59:33;98851.63;;;23.86;55.71
40574;BME280;26283;49.020;8.644;2023-09-19T01:02:02;98858.25;;;23.85;55.75
40574;BME280;26283;49.020;8.644;2023-09-19T01:04:28;98859.38;;;23.84;55.76
40574;BME280;26283;49.020;8.644;2023-09-19T01:06:53;98855.50;;;23.85;55.83
40574;BME280;26283;49.020;8.644;2023-09-19T01:09:20;98872.00;;;23.85;55.88
40574;BME280;26283;49.020;8.644;2023-09-19T01:11:48;98863.25;;;23.83;55.85
40574;BME280;26283;49.020;8.644;2023-09-19T01:14:31;98871.03;;;23.81;55.88
40574;BME280;26283;49.020;8.644;2023-09-19T01:17:07;98878.16;;;23.82;56.06
40574;BME280;26283;49.020;8.644;2023-09-19T01:20:20;98880.06;;;23.82;55.91
40574;BME280;26283;49.020;8.644;2023-09-19T01:30:52;98893.19;;;23.76;56.03
40574;BME280;26283;49.020;8.644;2023-09-19T01:33:19;98887.69;;;23.76;56.05
40574;BME280;26283;49.020;8.644;2023-09-19T01:35:45;98892.69;;;23.74;56.02
40574;BME280;26283;49.020;8.644;2023-09-19T01:38:10;98891.88;;;23.74;56.00
40574;BME280;26283;49.020;8.644;2023-09-19T01:40:42;98895.44;;;23.74;56.01
40574;BME280;26283;49.020;8.644;2023-09-19T01:43:15;98904.81;;;23.73;56.14
40574;BME280;26283;49.020;8.644;2023-09-19T01:45:56;98900.44;;;23.72;56.12
40574;BME280;26283;49.020;8.644;2023-09-19T01:48:46;98905.13;;;23.72;56.04
40574;BME280;26283;49.020;8.644;2023-09-19T01:51:21;98899.94;;;23.70;56.33
40574;BME280;26283;49.020;8.644;2023-09-19T01:53:56;98905.44;;;23.70;56.12
40574;BME280;26283;49.020;8.644;2023-09-19T01:59:28;98914.00;;;23.69;56.26
40574;BME280;26283;49.020;8.644;2023-09-19T02:01:59;98922.56;;;23.67;56.16
40574;BME280;26283;49.020;8.644;2023-09-19T02:04:26;98917.06;;;23.67;56.15
40574;BME280;26283;49.020;8.644;2023-09-19T02:06:52;98918.19;;;23.66;56.13
40574;BME280;26283;49.020;8.644;2023-09-19T02:09:18;98911.87;;;23.66;56.18
40574;BME280;26283;49.020;8.644;2023-09-19T02:11:43;98918.81;;;23.63;56.12
40574;BME280;26283;49.020;8.644;2023-09-19T02:14:09;98911.37;;;23.64;56.12
40574;BME280;26283;49.020;8.644;2023-09-19T02:16:35;98913.31;;;23.63;56.11
40574;BME280;26283;49.020;8.644;2023-09-19T02:19:00;98915.25;;;23.63;56.15
40574;BME280;26283;49.020;8.644;2023-09-19T02:21:26;98914.41;;;23.62;56.20
40574;BME280;26283;49.020;8.644;2023-09-19T02:23:55;98919.94;;;23.62;56.21
40574;BME280;26283;49.020;8.644;2023-09-19T02:26:20;98922.97;;;23.61;56.23
40574;BME280;26283;49.020;8.644;2023-09-19T02:28:47;98916.66;;;23.60;56.27
40574;BME280;26283;49.020;8.644;2023-09-19T02:31:12;98918.63;;;23.60;56.26
40574;BME280;26283;49.020;8.644;2023-09-19T02:33:37;98924.44;;;23.58;56.25
40574;BME280;26283;49.020;8.644;2023-09-19T02:36:04;98921.69;;;23.58;56.21
40574;BME280;26283;49.020;8.644;2023-09-19T02:38:29;98926.37;;;23.57;56.30
40574;BME280;26283;49.020;8.644;2023-09-19T02:40:55;98928.31;;;23.57;56.29
40574;BME280;26283;49.020;8.644;2023-09-19T02:43:23;98927.50;;;23.56;56.32
40574;BME280;26283;49.020;8.644;2023-09-19T02:45:50;98928.63;;;23.55;56.41
40574;BME280;26283;49.020;8.644;2023-09-19T02:48:16;98936.06;;;23.55;56.37
40574;BME280;26283;49.020;8.644;2023-09-19T02:50:42;98934.44;;;23.54;56.39
40574;BME280;26283;49.020;8.644;2023-09-19T02:53:08;98931.69;;;23.54;56.41
40574;BME280;26283;49.020;8.644;2023-09-19T02:55:35;98932.81;;;23.53;56.40
40574;BME280;26283;49.020;8.644;2023-09-19T02:58:00;98938.31;;;23.53;56.42
40574;BME280;26283;49.020;8.644;2023-09-19T03:00:27;98942.19;;;23.52;56.42
40574;BME280;26283;49.020;8.644;2023-09-19T03:02:55;98946.03;;;23.51;56.47
40574;BME280;26283;49.020;8.644;2023-09-19T03:05:22;98942.47;;;23.50;56.52
40574;BME280;26283;49.020;8.644;2023-09-19T03:07:49;98938.91;;;23.50;56.50
40574;BME280;26283;49.020;8.644;2023-09-19T03:10:20;98944.72;;;23.48;56.52
40574;BME280;26283;49.020;8.644;2023-09-19T03:12:47;98948.28;;;23.49;56.60
40574;BME280;26283;49.020;8.644;2023-09-19T03:15:13;98946.66;;;23.48;56.53
40574;BME280;26283;49.020;8.644;2023-09-19T03:17:43;98952.16;;;23.48;56.59
40574;BME280;26283;49.020;8.644;2023-09-19T03:20:09;98960.72;;;23.46;56.69
40574;BME280;26283;49.020;8.644;2023-09-19T03:22:37;98957.16;;;23.46;56.61
40574;BME280;26283;49.020;8.644;2023-09-19T03:25:03;98955.22;;;23.46;56.64
40574;BME280;26283;49.020;8.644;2023-09-19T03:27:35;98950.84;;;23.45;56.64
40574;BME280;26283;49.020;8.644;2023-09-19T03:30:01;98956.34;;;23.45;56.60
40574;BME280;26283;49.020;8.644;2023-09-19T03:32:30;98963.78;;;23.45;56.60
40574;BME280;26283;49.020;8.644;2023-09-19T03:34:56;98957.75;;;23.43;56.65
40574;BME280;26283;49.020;8.644;2023-09-19T03:37:21;98963.25;;;23.43;56.67
40574;BME280;26283;49.020;8.644;2023-09-19T03:39:47;98954.19;;;23.42;56.70
40574;BME280;26283;49.020;8.644;2023-09-19T03:42:12;98952.56;;;23.41;56.73
40574;BME280;26283;49.020;8.644;2023-09-19T03:44:37;98949.00;;;23.41;56.74
40574;BME280;26283;49.020;8.644;2023-09-19T03:47:03;98961.94;;;23.40;56.70
40574;BME280;26283;49.020;8.644;2023-09-19T03:49:30;98961.94;;;23.40;56.78
40574;BME280;26283;49.020;8.644;2023-09-19T03:51:55;98961.12;;;23.40;56.77
40574;BME280;26283;49.020;8.644;2023-09-19T03:54:21;98954.00;;;23.39;56.74
40574;BME280;26283;49.020;8.644;2023-09-19T03:56:46;98960.66;;;23.38;56.71
40574;BME280;26283;49.020;8.644;2023-09-19T03:59:11;98957.91;;;23.38;56.71
40574;BME280;26283;49.020;8.644;2023-09-19T04:01:37;98961.78;;;23.37;56.75
40574;BME280;26283;49.020;8.644;2023-09-19T04:04:03;98959.84;;;23.37;56.78
40574;BME280;26283;49.020;8.644;2023-09-19T04:06:35;98964.53;;;23.37;56.81
40574;BME280;26283;49.020;8.644;2023-09-19T04:09:01;98972.78;;;23.37;56.84
40574;BME280;26283;49.020;8.644;2023-09-19T04:11:27;98970.34;;;23.35;56.86
40574;BME280;26283;49.020;8.644;2023-09-19T04:13:52;98974.19;;;23.34;56.87
40574;BME280;26283;49.020;8.644;2023-09-19T04:16:18;98974.19;;;23.34;56.89
40574;BME280;26283;49.020;8.644;2023-09-19T04:18:43;98978.88;;;23.34;56.87
40574;BME280;26283;49.020;8.644;2023-09-19T04:21:09;98986.31;;;23.33;56.92
40574;BME280;26283;49.020;8.644;2023-09-19T04:23:34;98983.88;;;23.32;56.99
40574;BME280;26283;49.020;8.644;2023-09-19T04:26:00;98988.56;;;23.31;56.96
40574;BME280;26283;49.020;8.644;2023-09-19T04:28:25;98987.75;;;23.31;57.03
40574;BME280;26283;49.020;8.644;2023-09-19T04:30:53;98992.44;;;23.30;57.03
40574;BME280;26283;49.020;8.644;2023-09-19T04:33:18;98998.75;;;23.31;57.08
40574;BME280;26283;49.020;8.644;2023-09-19T04:35:43;98997.13;;;23.30;57.12
40574;BME280;26283;49.020;8.644;2023-09-19T04:38:09;99008.94;;;23.30;57.15
40574;BME280;26283;49.020;8.644;2023-09-19T04:40:34;99005.69;;;23.28;57.14
40574;BME280;26283;49.020;8.644;2023-09-19T04:43:00;99011.16;;;23.28;57.20
40574;BME280;26283;49.020;8.644;2023-09-19T04:45:26;99024.09;;;23.28;57.28
40574;BME280;26283;49.020;8.644;2023-09-19T04:47:52;99019.72;;;23.27;57.29
40574;BME280;26283;49.020;8.644;2023-09-19T04:50:18;99020.84;;;23.25;57.27
40574;BME280;26283;49.020;8.644;2023-09-19T04:52:49;99020.84;;;23.25;57.32
40574;BME280;26283;49.020;8.644;2023-09-19T04:55:16;99028.28;;;23.25;57.36
40574;BME280;26283;49.020;8.644;2023-09-19T04:57:46;99021.97;;;23.24;57.34
40574;BME280;26283;49.020;8.644;2023-09-19T05:00:16;99027.47;;;23.24;57.47
40574;BME280;26283;49.020;8.644;2023-09-19T05:02:45;99025.84;;;23.23;57.46
40574;BME280;26283;49.020;8.644;2023-09-19T05:05:11;99030.53;;;23.23;57.45
40574;BME280;26283;49.020;8.644;2023-09-19T05:07:38;99036.00;;;23.23;57.47
40574;BME280;26283;49.020;8.644;2023-09-19T05:10:04;99045.38;;;23.22;57.53
40574;BME280;26283;49.020;8.644;2023-09-19T05:12:34;99048.44;;;23.20;57.49
40574;BME280;26283;49.020;8.644;2023-09-19T05:15:01;99038.25;;;23.21;57.52
40574;BME280;26283;49.020;8.644;2023-09-19T05:17:27;99052.00;;;23.21;57.53
40574;BME280;26283;49.020;8.644;2023-09-19T05:19:52;99046.81;;;23.19;57.50
40574;BME280;26283;49.020;8.644;2023-09-19T05:22:18;99052.31;;;23.19;57.52
40574;BME280;26283;49.020;8.644;2023-09-19T05:24:43;99057.81;;;23.19;57.45
40574;BME280;26283;49.020;8.644;2023-09-19T05:27:12;99057.28;;;23.17;57.41
40574;BME280;26283;49.020;8.644;2023-09-19T05:29:37;99060.03;;;23.17;57.39
40574;BME280;26283;49.020;8.644;2023-09-19T05:32:03;99053.72;;;23.17;57.32
40574;BME280;26283;49.020;8.644;2023-09-19T05:34:29;99074.94;;;23.16;57.36
40574;BME280;26283;49.020;8.644;2023-09-19T05:36:55;99074.13;;;23.16;57.34
40574;BME280;26283;49.020;8.644;2023-09-19T05:39:21;99076.88;;;23.16;57.37
40574;BME280;26283;49.020;8.644;2023-09-19T05:41:46;99085.94;;;23.16;57.32
40574;BME280;26283;49.020;8.644;2023-09-19T05:44:13;99088.97;;;23.15;57.32
40574;BME280;26283;49.020;8.644;2023-09-19T05:46:39;99088.16;;;23.14;57.32
40574;BME280;26283;49.020;8.644;2023-09-19T05:49:05;99090.09;;;23.14;57.32
40574;BME280;26283;49.020;8.644;2023-09-19T05:51:30;99085.72;;;23.13;57.32
40574;BME280;26283;49.020;8.644;2023-09-19T05:53:56;99103.34;;;23.12;57.35
40574;BME280;26283;49.020;8.644;2023-09-19T05:56:21;99104.44;;;23.11;57.37
40574;BME280;26283;49.020;8.644;2023-09-19T05:58:47;99103.63;;;23.10;57.38
40574;BME280;26283;49.020;8.644;2023-09-19T06:01:13;99110.75;;;23.11;57.40
40574;BME280;26283;49.020;8.644;2023-09-19T06:03:38;99113.81;;;23.10;57.37
40574;BME280;26283;49.020;8.644;2023-09-19T06:06:03;99114.63;;;23.10;57.37
40574;BME280;26283;49.020;8.644;2023-09-19T06:08:32;99114.94;;;23.09;57.39
40574;BME280;26283;49.020;8.644;2023-09-19T06:10:58;99112.19;;;23.09;57.41
40574;BME280;26283;49.020;8.644;2023-09-19T06:13:24;99121.53;;;23.08;57.41
40574;BME280;26283;49.020;8.644;2023-09-19T06:15:52;99114.41;;;23.07;57.43
40574;BME280;26283;49.020;8.644;2023-09-19T06:18:17;99126.22;;;23.07;57.40
40574;BME280;26283;49.020;8.644;2023-09-19T06:20:47;99128.97;;;23.07;57.33
40574;BME280;26283;49.020;8.644;2023-09-19T06:23:13;99123.78;;;23.06;57.35
40574;BME280;26283;49.020;8.644;2023-09-19T06:25:39;99122.97;;;23.05;57.24
40574;BME280;26283;49.020;8.644;2023-09-19T06:28:06;99111.16;;;23.05;57.25
40574;BME280;26283;49.020;8.644;2023-09-19T06:30:33;99121.34;;;23.04;57.24
40574;BME280;26283;49.020;8.644;2023-09-19T06:32:59;99124.09;;;23.04;57.22
40574;BME280;26283;49.020;8.644;2023-09-19T06:35:26;99118.88;;;23.03;57.26
40574;BME280;26283;49.020;8.644;2023-09-19T06:37:53;99124.37;;;23.03;57.28
40574;BME280;26283;49.020;8.644;2023-09-19T06:40:18;99129.06;;;23.02;57.27
40574;BME280;26283;49.020;8.644;2023-09-19T06:42:45;99140.06;;;23.02;57.23
40574;BME280;26283;49.020;8.644;2023-09-19T06:45:12;99137.31;;;23.02;57.24
40574;BME280;26283;49.020;8.644;2023-09-19T06:47:42;99146.66;;;23.01;57.20
40574;BME280;26283;49.020;8.644;2023-09-19T06:50:08;99147.78;;;23.00;57.19
40574;BME280;26283;49.020;8.644;2023-09-19T06:52:39;99147.28;;;22.98;57.19
40574;BME280;26283;49.020;8.644;2023-09-19T06:55:05;99144.53;;;22.98;57.12
40574;BME280;26283;49.020;8.644;2023-09-19T06:57:31;99151.94;;;22.98;57.11
40574;BME280;26283;49.020;8.644;2023-09-19T06:59:57;99158.56;;;22.97;57.16
40574;BME280;26283;49.020;8.644;2023-09-19T07:02:22;99149.50;;;22.96;57.18
40574;BME280;26283;49.020;8.644;2023-09-19T07:04:48;99152.25;;;22.96;57.21
40574;BME280;26283;49.020;8.644;2023-09-19T07:07:15;99153.38;;;22.95;57.19
40574;BME280;26283;49.020;8.644;2023-09-19T07:09:41;99158.88;;;22.95;57.18
40574;BME280;26283;49.020;8.644;2023-09-19T07:12:07;99155.34;;;22.95;57.14
40574;BME280;26283;49.020;8.644;2023-09-19T07:14:32;99167.12;;;22.95;57.09
40574;BME280;26283;49.020;8.644;2023-09-19T07:16:58;99174.88;;;22.93;57.11
40574;BME280;26283;49.020;8.644;2023-09-19T07:19:25;99176.50;;;22.94;57.10
40574;BME280;26283;49.020;8.644;2023-09-19T07:21:53;99174.88;;;22.93;57.13
40574;BME280;26283;49.020;8.644;2023-09-19T07:24:19;99177.63;;;22.93;57.10
40574;BME280;26283;49.020;8.644;2023-09-19T07:26:45;99184.22;;;22.92;57.16
40574;BME280;26283;49.020;8.644;2023-09-19T07:29:10;99179.84;;;22.91;57.14
40574;BME280;26283;49.020;8.644;2023-09-19T07:31:36;99185.34;;;22.91;57.15
40574;BME280;26283;49.020;8.644;2023-09-19T07:34:01;99184.53;;;22.90;57.19
40574;BME280;26283;49.020;8.644;2023-09-19T07:36:29;99180.97;;;22.90;57.26
40574;BME280;26283;49.020;8.644;2023-09-19T07:38:55;99180.97;;;22.90;57.26
40574;BME280;26283;49.020;8.644;2023-09-19T07:41:20;99190.03;;;22.90;57.33
40574;BME280;26283;49.020;8.644;2023-09-19T07:43:46;99191.97;;;22.90;57.34
40574;BME280;26283;49.020;8.644;2023-09-19T07:46:11;99207.63;;;22.89;57.36
40574;BME280;26283;49.020;8.644;2023-09-19T07:48:37;99219.44;;;22.90;57.86
40574;BME280;26283;49.020;8.644;2023-09-19T07:51:07;99214.75;;;22.90;57.96
40574;BME280;26283;49.020;8.644;2023-09-19T07:53:34;99212.81;;;22.91;58.05
40574;BME280;26283;49.020;8.644;2023-09-19T07:56:04;99218.31;;;22.91;58.03
40574;BME280;26283;49.020;8.644;2023-09-19T07:58:30;99215.56;;;22.91;58.02
40574;BME280;26283;49.020;8.644;2023-09-19T08:00:55;99214.75;;;22.90;57.89
40574;BME280;26283;49.020;8.644;2023-09-19T08:03:20;99219.44;;;22.90;57.82
40574;BME280;26283;49.020;8.644;2023-09-19T08:05:46;99218.63;;;22.89;57.74
40574;BME280;26283;49.020;8.644;2023-09-19T08:08:13;99225.22;;;22.88;57.64
40574;BME280;26283;49.020;8.644;2023-09-19T08:10:39;99237.03;;;22.89;57.57
40574;BME280;26283;49.020;8.644;2023-09-19T08:13:07;99244.75;;;22.87;57.43
40574;BME280;26283;49.020;8.644;2023-09-19T08:15:36;99245.56;;;22.87;57.39
40574;BME280;26283;49.020;8.644;2023-09-19T08:18:09;99245.87;;;22.86;57.29
40574;BME280;26283;49.020;8.644;2023-09-19T08:20:37;99243.12;;;22.86;57.19
40574;BME280;26283;49.020;8.644;2023-09-19T08:23:03;99250.56;;;22.85;57.11
40574;BME280;26283;49.020;8.644;2023-09-19T08:25:29;99248.09;;;22.84;57.03
40574;BME280;26283;49.020;8.644;2023-09-19T08:27:55;99253.59;;;22.84;56.95
40574;BME280;26283;49.020;8.644;2023-09-19T08:30:27;99248.09;;;22.84;56.83
40574;BME280;26283;49.020;8.644;2023-09-19T08:33:01;99243.72;;;22.83;56.80
40574;BME280;26283;49.020;8.644;2023-09-19T08:35:28;99250.03;;;22.83;56.78
40574;BME280;26283;49.020;8.644;2023-09-19T08:37:53;99247.28;;;22.83;56.69
40574;BME280;26283;49.020;8.644;2023-09-19T08:40:20;99248.91;;;22.84;56.63
40574;BME280;26283;49.020;8.644;2023-09-19T08:42:53;99250.84;;;22.84;56.55
40574;BME280;26283;49.020;8.644;2023-09-19T08:45:20;99244.53;;;22.83;56.50
40574;BME280;26283;49.020;8.644;2023-09-19T08:50:59;99241.78;;;22.83;56.41
40574;BME280;26283;49.020;8.644;2023-09-19T08:55:59;99254.41;;;22.84;56.28
40574;BME280;26283;49.020;8.644;2023-09-19T08:58:46;99250.84;;;22.84;56.24
40574;BME280;26283;49.020;8.644;2023-09-19T09:01:17;99254.41;;;22.84;56.12
40574;BME280;26283;49.020;8.644;2023-09-19T09:03:51;99247.28;;;22.83;56.02
40574;BME280;26283;49.020;8.644;2023-09-19T09:06:17;99248.91;;;22.84;55.92
40574;BME280;26283;49.020;8.644;2023-09-19T09:08:44;99253.59;;;22.84;55.90
40574;BME280;26283;49.020;8.644;2023-09-19T09:11:10;99259.09;;;22.84;55.86
40574;BME280;26283;49.020;8.644;2023-09-19T09:13:36;99254.41;;;22.84;55.76
40574;BME280;26283;49.020;8.644;2023-09-19T09:16:03;99256.88;;;22.86;55.69
40574;BME280;26283;49.020;8.644;2023-09-19T09:18:29;99263.19;;;22.86;55.60
40574;BME280;26283;49.020;8.644;2023-09-19T09:20:57;99262.34;;;22.86;55.54
40574;BME280;26283;49.020;8.644;2023-09-19T09:23:22;99262.34;;;22.86;55.46
40574;BME280;26283;49.020;8.644;2023-09-19T09:25:54;99263.19;;;22.86;55.38
40574;BME280;26283;49.020;8.644;2023-09-19T09:28:26;99255.75;;;22.87;55.31
40574;BME280;26283;49.020;8.644;2023-09-19T09:30:52;99254.63;;;22.88;55.24
40574;BME280;26283;49.020;8.644;2023-09-19T09:33:18;99246.69;;;22.86;55.15
40574;BME280;26283;49.020;8.644;2023-09-19T09:35:53;99259.03;;;22.89;55.08
40574;BME280;26283;49.020;8.644;2023-09-19T09:38:23;99249.66;;;22.90;55.06
40574;BME280;26283;49.020;8.644;2023-09-19T09:40:58;99249.66;;;22.90;55.05
40574;BME280;26283;49.020;8.644;2023-09-19T09:43:37;99256.78;;;22.91;55.07
40574;BME280;26283;49.020;8.644;2023-09-19T09:48:57;99255.69;;;22.92;55.00
40574;BME280;26283;49.020;8.644;2023-09-19T09:51:48;99246.31;;;22.93;54.99
40574;BME280;26283;49.020;8.644;2023-09-19T09:54:23;99244.38;;;22.94;54.92
40574;BME280;26283;49.020;8.644;2023-09-19T09:56:59;99254.25;;;22.95;54.89
40574;BME280;26283;49.020;8.644;2023-09-19T09:59:53;99245.69;;;22.96;54.88
40574;BME280;26283;49.020;8.644;2023-09-19T10:02:25;99248.97;;;22.98;54.82
40574;BME280;26283;49.020;8.644;2023-09-19T10:04:55;99247.31;;;22.97;54.83
40574;BME280;26283;49.020;8.644;2023-09-19T10:07:51;99252.22;;;23.00;54.80
40574;BME280;26283;49.020;8.644;2023-09-19T10:10:32;99245.91;;;23.00;54.78
40574;BME280;26283;49.020;8.644;2023-09-19T10:13:08;99244.78;;;23.01;54.77
40574;BME280;26283;49.020;8.644;2023-09-19T10:15:37;99250.00;;;23.02;54.76
40574;BME280;26283;49.020;8.644;2023-09-19T10:18:07;99257.13;;;23.03;54.74
40574;BME280;26283;49.020;8.644;2023-09-19T10:20:36;99264.25;;;23.04;54.75
40574;BME280;26283;49.020;8.644;2023-09-19T10:23:09;99246.66;;;23.05;54.74
40574;BME280;26283;49.020;8.644;2023-09-19T10:25:43;99253.25;;;23.04;54.71
40574;BME280;26283;49.020;8.644;2023-09-19T10:28:12;99253.78;;;23.06;54.71
40574;BME280;26283;49.020;8.644;2023-09-19T10:30:44;99251.84;;;23.07;54.69
40574;BME280;26283;49.020;8.644;2023-09-19T10:33:13;99260.59;;;23.09;54.70
40574;BME280;26283;49.020;8.644;2023-09-19T10:35:45;99244.13;;;23.09;54.68
40574;BME280;26283;49.020;8.644;2023-09-19T10:38:14;99245.75;;;23.10;54.65
40574;BME280;26283;49.020;8.644;2023-09-19T10:40:42;99245.44;;;23.11;54.63
40574;BME280;26283;49.020;8.644;2023-09-19T10:43:16;99248.19;;;23.11;54.62
40574;BME280;26283;49.020;8.644;2023-09-19T10:45:47;99242.41;;;23.13;54.62
40574;BME280;26283;49.020;8.644;2023-09-19T10:48:15;99251.47;;;23.13;54.62
40574;BME280;26283;49.020;8.644;2023-09-19T10:50:48;99246.78;;;23.14;54.62
40574;BME280;26283;49.020;8.644;2023-09-19T10:53:16;99248.41;;;23.15;54.61
40574;BME280;26283;49.020;8.644;2023-09-19T10:55:49;99238.25;;;23.15;54.61
40574;BME280;26283;49.020;8.644;2023-09-19T10:58:27;99238.25;;;23.15;54.62
40574;BME280;26283;49.020;8.644;2023-09-19T11:00:59;99243.41;;;23.17;54.61
40574;BME280;26283;49.020;8.644;2023-09-19T11:03:28;99240.34;;;23.18;54.59
40574;BME280;26283;49.020;8.644;2023-09-19T11:06:01;99242.28;;;23.18;54.60
40574;BME280;26283;49.020;8.644;2023-09-19T11:08:30;99244.75;;;23.19;54.62
40574;BME280;26283;49.020;8.644;2023-09-19T11:10:57;99239.25;;;23.19;54.62
40574;BME280;26283;49.020;8.644;2023-09-19T11:13:29;99251.88;;;23.20;54.63
40574;BME280;26283;49.020;8.644;2023-09-19T11:26:50;99228.47;;;23.23;54.66
40574;BME280;26283;49.020;8.644;2023-09-19T11:29:32;99232.03;;;23.23;54.67
40574;BME280;26283;49.020;8.644;2023-09-19T11:31:58;99237.53;;;23.23;54.69
40574;BME280;26283;49.020;8.644;2023-09-19T11:34:47;99235.59;;;23.24;54.68
40574;BME280;26283;49.020;8.644;2023-09-19T11:40:06;99228.16;;;23.24;54.73
40574;BME280;26283;49.020;8.644;2023-09-19T11:42:48;99226.22;;;23.25;54.74
40574;BME280;26283;49.020;8.644;2023-09-19T11:48:23;99223.19;;;23.27;54.75
40574;BME280;26283;49.020;8.644;2023-09-19T11:50:51;99221.53;;;23.25;54.74
40574;BME280;26283;49.020;8.644;2023-09-19T11:53:18;99221.53;;;23.25;54.79
40574;BME280;26283;49.020;8.644;2023-09-19T11:55:45;99220.44;;;23.27;54.80
40574;BME280;26283;49.020;8.644;2023-09-19T11:58:12;99211.06;;;23.28;54.83
40574;BME280;26283;49.020;8.644;2023-09-19T12:00:40;99209.13;;;23.28;54.79
40574;BME280;26283;49.020;8.644;2023-09-19T12:03:10;99209.94;;;23.29;54.73
40574;BME280;26283;49.020;8.644;2023-09-19T12:05:36;99207.72;;;23.31;54.75
40574;BME280;26283;49.020;8.644;2023-09-19T12:08:05;99203.03;;;23.31;54.70
40574;BME280;26283;49.020;8.644;2023-09-19T12:13:19;99209.56;;;23.35;54.61
40574;BME280;26283;49.020;8.644;2023-09-19T12:15:46;99196.62;;;23.36;54.53
40574;BME280;26283;49.020;8.644;2023-09-19T12:18:31;99204.88;;;23.36;54.53
40574;BME280;26283;49.020;8.644;2023-09-19T12:20:57;99197.12;;;23.38;54.48
40574;BME280;26283;49.020;8.644;2023-09-19T12:23:23;99198.75;;;23.39;54.43
40574;BME280;26283;49.020;8.644;2023-09-19T12:25:51;99191.81;;;23.41;54.40
40574;BME280;26283;49.020;8.644;2023-09-19T12:28:19;99191.00;;;23.41;54.36
40574;BME280;26283;49.020;8.644;2023-09-19T12:30:47;99195.38;;;23.42;54.32
40574;BME280;26283;49.020;8.644;2023-09-19T12:33:19;99184.38;;;23.42;54.28
40574;BME280;26283;49.020;8.644;2023-09-19T12:35:46;99190.41;;;23.44;54.19
40574;BME280;26283;49.020;8.644;2023-09-19T12:38:24;99182.97;;;23.44;54.18
40574;BME280;26283;49.020;8.644;2023-09-19T12:40:50;99177.16;;;23.46;54.11
40574;BME280;26283;49.020;8.644;2023-09-19T12:43:17;99173.28;;;23.47;54.14
40574;BME280;26283;49.020;8.644;2023-09-19T12:45:43;99170.53;;;23.47;54.19
40574;BME280;26283;49.020;8.644;2023-09-19T12:48:23;99161.16;;;23.48;54.18
40574;BME280;26283;49.020;8.644;2023-09-19T12:51:11;99161.97;;;23.48;54.12
40574;BME280;26283;49.020;8.644;2023-09-19T12:53:45;99165.56;;;23.49;54.03
40574;BME280;26283;49.020;8.644;2023-09-19T12:56:16;99167.19;;;23.50;54.03
40574;BME280;26283;49.020;8.644;2023-09-19T12:58:51;99164.44;;;23.50;54.06
40574;BME280;26283;49.020;8.644;2023-09-19T13:01:19;99156.72;;;23.52;54.05
40574;BME280;26283;49.020;8.644;2023-09-19T13:03:44;99159.47;;;23.52;54.09
40574;BME280;26283;49.020;8.644;2023-09-19T13:06:11;99153.97;;;23.52;54.11
40574;BME280;26283;49.020;8.644;2023-09-19T13:08:40;99150.09;;;23.53;54.04
40574;BME280;26283;49.020;8.644;2023-09-19T13:11:16;99156.41;;;23.53;53.95
40574;BME280;26283;49.020;8.644;2023-09-19T13:13:48;99150.62;;;23.55;53.90
40574;BME280;26283;49.020;8.644;2023-09-19T13:16:15;99152.25;;;23.56;53.88
40574;BME280;26283;49.020;8.644;2023-09-19T13:18:49;99151.12;;;23.57;53.80
40574;BME280;26283;49.020;8.644;2023-09-19T13:21:29;99148.88;;;23.59;53.85
40574;BME280;26283;49.020;8.644;2023-09-19T13:24:24;99154.87;;;23.61;53.81
40574;BME280;26283;49.020;8.644;2023-09-19T13:26:55;99135.59;;;23.61;53.80
40574;BME280;26283;49.020;8.644;2023-09-19T13:29:20;99172.19;;;23.62;53.69
40574;BME280;26283;49.020;8.644;2023-09-19T13:31:51;99155.37;;;23.63;53.61
40574;BME280;26283;49.020;8.644;2023-09-19T13:34:18;99143.25;;;23.64;53.57
40574;BME280;26283;49.020;8.644;2023-09-19T13:36:44;99142.13;;;23.65;53.54
40574;BME280;26283;49.020;8.644;2023-09-19T13:39:10;99144.56;;;23.67;53.53
40574;BME280;26283;49.020;8.644;2023-09-19T13:41:38;99146.22;;;23.68;53.55
40574;BME280;26283;49.020;8.644;2023-09-19T13:44:04;99141.53;;;23.68;53.58
40574;BME280;26283;49.020;8.644;2023-09-19T13:46:30;99137.66;;;23.69;53.54